sensor_id;sensor_type;location;lat;lon;timestamp;temperature;humidity
4435;DHT22;46552;52.150;8.428;2022-07-22T00:02:00;20.00;99.90
4435;DHT22;46552;52.150;8.428;2022-07-22T00:04:28;20.00;99.90
4435;DHT22;46552;52.150;8.428;2022-07-22T00:06:56;20.00;99.90
4435;DHT22;46552;52.150;8.428;2022-07-22T00:09:23;19.90;99.90
4435;DHT22;46552;52.150;8.428;2022-07-22T00:11:51;19.90;99.90
4435;DHT22;46552;52.150;8.428;2022-07-22T00:14:18;19.80;99.90
4435;DHT22;46552;52.150;8.428;2022-07-22T00:16:46;19.80;99.90
4435;DHT22;46552;52.150;8.428;2022-07-22T00:19:14;19.70;99.90
4435;DHT22;46552;52.150;8.428;2022-07-22T00:21:41;19.70;99.90
4435;DHT22;46552;52.150;8.428;2022-07-22T00:24:09;19.70;99.90
4435;DHT22;46552;52.150;8.428;2022-07-22T00:26:36;19.70;99.90
4435;DHT22;46552;52.150;8.428;2022-07-22T00:29:03;19.70;99.90
4435;DHT22;46552;52.150;8.428;2022-07-22T00:31:30;19.60;99.90
4435;DHT22;46552;52.150;8.428;2022-07-22T00:33:59;19.60;99.90
4435;DHT22;46552;52.150;8.428;2022-07-22T00:36:29;19.60;99.90
4435;DHT22;46552;52.150;8.428;2022-07-22T00:38:56;19.50;99.90
4435;DHT22;46552;52.150;8.428;2022-07-22T00:41:25;19.50;99.90
4435;DHT22;46552;52.150;8.428;2022-07-22T00:43:54;19.50;99.90
4435;DHT22;46552;52.150;8.428;2022-07-22T00:46:22;19.50;99.90
4435;DHT22;46552;52.150;8.428;2022-07-22T00:48:50;19.40;99.90
4435;DHT22;46552;52.150;8.428;2022-07-22T00:51:18;19.50;99.90
4435;DHT22;46552;52.150;8.428;2022-07-22T00:53:48;19.40;99.90
4435;DHT22;46552;52.150;8.428;2022-07-22T00:56:16;19.40;99.90
4435;DHT22;46552;52.150;8.428;2022-07-22T00:58:46;19.30;99.90
4435;DHT22;46552;52.150;8.428;2022-07-22T01:01:14;19.30;99.90
4435;DHT22;46552;52.150;8.428;2022-07-22T01:03:41;19.30;99.90
4435;DHT22;46552;52.150;8.428;2022-07-22T01:06:09;19.30;99.90
4435;DHT22;46552;52.150;8.428;2022-07-22T01:08:38;19.30;99.90
4435;DHT22;46552;52.150;8.428;2022-07-22T01:11:11;19.20;99.90
4435;DHT22;46552;52.150;8.428;2022-07-22T01:13:39;19.20;99.90
4435;DHT22;46552;52.150;8.428;2022-07-22T01:16:07;19.20;99.90
4435;DHT22;46552;52.150;8.428;2022-07-22T01:18:35;19.20;99.90
4435;DHT22;46552;52.150;8.428;2022-07-22T01:21:05;19.10;99.90
4435;DHT22;46552;52.150;8.428;2022-07-22T01:23:32;19.20;99.90
4435;DHT22;46552;52.150;8.428;2022-07-22T01:26:00;19.20;99.90
4435;DHT22;46552;52.150;8.428;2022-07-22T01:28:28;19.20;99.90
4435;DHT22;46552;52.150;8.428;2022-07-22T01:30:55;19.20;99.90
4435;DHT22;46552;52.150;8.428;2022-07-22T01:33:23;19.20;99.90
4435;DHT22;46552;52.150;8.428;2022-07-22T01:35:51;19.20;99.90
4435;DHT22;46552;52.150;8.428;2022-07-22T01:38:19;19.20;99.90
4435;DHT22;46552;52.150;8.428;2022-07-22T01:40:47;19.20;99.90
4435;DHT22;46552;52.150;8.428;2022-07-22T01:43:15;19.10;99.90
4435;DHT22;46552;52.150;8.428;2022-07-22T01:45:44;19.10;99.90
4435;DHT22;46552;52.150;8.428;2022-07-22T01:48:12;19.10;99.90
4435;DHT22;46552;52.150;8.428;2022-07-22T01:50:39;19.10;99.90
4435;DHT22;46552;52.150;8.428;2022-07-22T01:53:07;19.00;99.90
4435;DHT22;46552;52.150;8.428;2022-07-22T01:55:36;19.00;99.90
4435;DHT22;46552;52.150;8.428;2022-07-22T01:58:04;19.00;99.90
4435;DHT22;46552;52.150;8.428;2022-07-22T02:00:32;19.00;99.90
4435;DHT22;46552;52.150;8.428;2022-07-22T02:03:00;19.00;99.90
4435;DHT22;46552;52.150;8.428;2022-07-22T02:05:27;19.00;99.90
4435;DHT22;46552;52.150;8.428;2022-07-22T02:07:59;19.00;99.90
4435;DHT22;46552;52.150;8.428;2022-07-22T02:10:26;19.00;99.90
4435;DHT22;46552;52.150;8.428;2022-07-22T02:12:55;18.90;99.90
4435;DHT22;46552;52.150;8.428;2022-07-22T02:15:23;18.90;99.90
4435;DHT22;46552;52.150;8.428;2022-07-22T02:17:50;18.90;99.90
4435;DHT22;46552;52.150;8.428;2022-07-22T02:20:17;18.80;99.90
4435;DHT22;46552;52.150;8.428;2022-07-22T02:22:44;18.80;99.90
4435;DHT22;46552;52.150;8.428;2022-07-22T02:25:13;18.90;99.90
4435;DHT22;46552;52.150;8.428;2022-07-22T02:27:41;18.90;99.90
4435;DHT22;46552;52.150;8.428;2022-07-22T02:30:10;18.80;99.90
4435;DHT22;46552;52.150;8.428;2022-07-22T02:32:37;18.80;99.90
4435;DHT22;46552;52.150;8.428;2022-07-22T02:35:06;18.80;99.90
4435;DHT22;46552;52.150;8.428;2022-07-22T02:37:34;18.80;99.90
4435;DHT22;46552;52.150;8.428;2022-07-22T02:40:03;18.80;99.90
4435;DHT22;46552;52.150;8.428;2022-07-22T02:42:31;18.70;99.90
4435;DHT22;46552;52.150;8.428;2022-07-22T02:45:00;18.70;99.90
4435;DHT22;46552;52.150;8.428;2022-07-22T02:47:29;18.70;99.90
4435;DHT22;46552;52.150;8.428;2022-07-22T02:49:56;18.70;99.90
4435;DHT22;46552;52.150;8.428;2022-07-22T02:52:24;18.70;99.90
4435;DHT22;46552;52.150;8.428;2022-07-22T02:54:51;18.60;99.90
4435;DHT22;46552;52.150;8.428;2022-07-22T02:57:18;18.60;99.90
4435;DHT22;46552;52.150;8.428;2022-07-22T02:59:45;18.60;99.90
4435;DHT22;46552;52.150;8.428;2022-07-22T03:02:12;18.50;99.90
4435;DHT22;46552;52.150;8.428;2022-07-22T03:04:40;18.50;99.90
4435;DHT22;46552;52.150;8.428;2022-07-22T03:07:08;18.50;99.90
4435;DHT22;46552;52.150;8.428;2022-07-22T03:09:35;18.50;99.90
4435;DHT22;46552;52.150;8.428;2022-07-22T03:12:02;18.50;99.90
4435;DHT22;46552;52.150;8.428;2022-07-22T03:14:29;18.50;99.90
4435;DHT22;46552;52.150;8.428;2022-07-22T03:16:56;18.50;99.90
4435;DHT22;46552;52.150;8.428;2022-07-22T03:19:23;18.40;99.90
4435;DHT22;46552;52.150;8.428;2022-07-22T03:21:51;18.40;99.90
4435;DHT22;46552;52.150;8.428;2022-07-22T03:24:19;18.40;99.90
4435;DHT22;46552;52.150;8.428;2022-07-22T03:26:46;18.30;99.90
4435;DHT22;46552;52.150;8.428;2022-07-22T03:29:13;18.30;99.90
4435;DHT22;46552;52.150;8.428;2022-07-22T03:31:40;18.30;99.90
4435;DHT22;46552;52.150;8.428;2022-07-22T03:34:07;18.30;99.90
4435;DHT22;46552;52.150;8.428;2022-07-22T03:36:34;18.30;99.90
4435;DHT22;46552;52.150;8.428;2022-07-22T03:39:03;18.30;99.90
4435;DHT22;46552;52.150;8.428;2022-07-22T03:41:30;18.30;99.90
4435;DHT22;46552;52.150;8.428;2022-07-22T03:43:57;18.30;99.90
4435;DHT22;46552;52.150;8.428;2022-07-22T03:46:24;18.30;99.90
4435;DHT22;46552;52.150;8.428;2022-07-22T03:48:52;18.30;99.90
4435;DHT22;46552;52.150;8.428;2022-07-22T03:51:21;18.30;99.90
4435;DHT22;46552;52.150;8.428;2022-07-22T03:53:49;18.30;99.90
4435;DHT22;46552;52.150;8.428;2022-07-22T03:56:17;18.30;99.90
4435;DHT22;46552;52.150;8.428;2022-07-22T03:58:45;18.30;99.90
4435;DHT22;46552;52.150;8.428;2022-07-22T04:01:12;18.30;99.90
4435;DHT22;46552;52.150;8.428;2022-07-22T04:03:39;18.20;99.90
4435;DHT22;46552;52.150;8.428;2022-07-22T04:06:06;18.20;99.90
4435;DHT22;46552;52.150;8.428;2022-07-22T04:08:33;18.20;99.90
4435;DHT22;46552;52.150;8.428;2022-07-22T04:11:03;18.20;99.90
4435;DHT22;46552;52.150;8.428;2022-07-22T04:13:31;18.20;99.90
4435;DHT22;46552;52.150;8.428;2022-07-22T04:15:58;18.20;99.90
4435;DHT22;46552;52.150;8.428;2022-07-22T04:18:25;18.20;99.90
4435;DHT22;46552;52.150;8.428;2022-07-22T04:20:52;18.20;99.90
4435;DHT22;46552;52.150;8.428;2022-07-22T04:23:20;18.20;99.90
4435;DHT22;46552;52.150;8.428;2022-07-22T04:25:48;18.10;99.90
4435;DHT22;46552;52.150;8.428;2022-07-22T04:28:15;18.10;99.90
4435;DHT22;46552;52.150;8.428;2022-07-22T04:30:43;18.10;99.90
4435;DHT22;46552;52.150;8.428;2022-07-22T04:33:12;18.10;99.90
4435;DHT22;46552;52.150;8.428;2022-07-22T04:35:39;18.00;99.90
4435;DHT22;46552;52.150;8.428;2022-07-22T04:38:06;18.00;99.90
4435;DHT22;46552;52.150;8.428;2022-07-22T04:40:33;18.00;99.90
4435;DHT22;46552;52.150;8.428;2022-07-22T04:43:00;18.10;99.90
4435;DHT22;46552;52.150;8.428;2022-07-22T04:45:29;18.10;99.90
4435;DHT22;46552;52.150;8.428;2022-07-22T04:47:57;18.10;99.90
4435;DHT22;46552;52.150;8.428;2022-07-22T04:50:24;18.10;99.90
4435;DHT22;46552;52.150;8.428;2022-07-22T04:52:51;18.10;99.90
4435;DHT22;46552;52.150;8.428;2022-07-22T04:55:18;18.10;99.90
4435;DHT22;46552;52.150;8.428;2022-07-22T04:57:45;18.10;99.90
4435;DHT22;46552;52.150;8.428;2022-07-22T05:00:13;18.10;99.90
4435;DHT22;46552;52.150;8.428;2022-07-22T05:02:41;18.10;99.90
4435;DHT22;46552;52.150;8.428;2022-07-22T05:05:10;18.10;99.90
4435;DHT22;46552;52.150;8.428;2022-07-22T05:07:38;18.10;99.90
4435;DHT22;46552;52.150;8.428;2022-07-22T05:10:06;18.10;99.90
4435;DHT22;46552;52.150;8.428;2022-07-22T05:12:33;18.20;99.90
4435;DHT22;46552;52.150;8.428;2022-07-22T05:15:00;18.10;99.90
4435;DHT22;46552;52.150;8.428;2022-07-22T05:17:27;18.20;99.90
4435;DHT22;46552;52.150;8.428;2022-07-22T05:19:54;18.30;99.90
4435;DHT22;46552;52.150;8.428;2022-07-22T05:22:24;18.20;99.90
4435;DHT22;46552;52.150;8.428;2022-07-22T05:24:51;18.20;99.90
4435;DHT22;46552;52.150;8.428;2022-07-22T05:27:18;18.20;99.90
4435;DHT22;46552;52.150;8.428;2022-07-22T05:29:45;18.20;99.90
4435;DHT22;46552;52.150;8.428;2022-07-22T05:32:12;18.30;99.90
4435;DHT22;46552;52.150;8.428;2022-07-22T05:34:40;18.30;99.90
4435;DHT22;46552;52.150;8.428;2022-07-22T05:37:07;18.20;99.90
4435;DHT22;46552;52.150;8.428;2022-07-22T05:39:36;18.20;99.90
4435;DHT22;46552;52.150;8.428;2022-07-22T05:42:04;18.20;99.90
4435;DHT22;46552;52.150;8.428;2022-07-22T05:44:31;18.30;99.90
4435;DHT22;46552;52.150;8.428;2022-07-22T05:46:59;18.40;99.90
4435;DHT22;46552;52.150;8.428;2022-07-22T05:49:26;18.40;99.90
4435;DHT22;46552;52.150;8.428;2022-07-22T05:51:53;18.40;99.90
4435;DHT22;46552;52.150;8.428;2022-07-22T05:54:23;18.40;99.90
4435;DHT22;46552;52.150;8.428;2022-07-22T05:56:52;18.50;99.90
4435;DHT22;46552;52.150;8.428;2022-07-22T05:59:20;18.50;99.90
4435;DHT22;46552;52.150;8.428;2022-07-22T06:01:47;18.60;99.90
4435;DHT22;46552;52.150;8.428;2022-07-22T06:04:14;18.60;99.90
4435;DHT22;46552;52.150;8.428;2022-07-22T06:06:41;18.70;99.90
4435;DHT22;46552;52.150;8.428;2022-07-22T06:09:08;18.80;99.90
4435;DHT22;46552;52.150;8.428;2022-07-22T06:11:35;18.70;99.90
4435;DHT22;46552;52.150;8.428;2022-07-22T06:14:05;18.80;99.90
4435;DHT22;46552;52.150;8.428;2022-07-22T06:16:33;18.80;99.90
4435;DHT22;46552;52.150;8.428;2022-07-22T06:19:01;18.80;99.90
4435;DHT22;46552;52.150;8.428;2022-07-22T06:21:28;18.90;99.90
4435;DHT22;46552;52.150;8.428;2022-07-22T06:23:56;18.90;99.90
4435;DHT22;46552;52.150;8.428;2022-07-22T06:26:23;18.90;99.90
4435;DHT22;46552;52.150;8.428;2022-07-22T06:28:50;18.90;99.90
4435;DHT22;46552;52.150;8.428;2022-07-22T06:31:19;18.90;99.90
4435;DHT22;46552;52.150;8.428;2022-07-22T06:33:46;18.80;99.90
4435;DHT22;46552;52.150;8.428;2022-07-22T06:36:13;18.80;99.90
4435;DHT22;46552;52.150;8.428;2022-07-22T06:38:43;18.90;99.90
4435;DHT22;46552;52.150;8.428;2022-07-22T06:41:10;18.90;99.90
4435;DHT22;46552;52.150;8.428;2022-07-22T06:43:39;18.90;99.90
4435;DHT22;46552;52.150;8.428;2022-07-22T06:46:06;18.90;99.90
4435;DHT22;46552;52.150;8.428;2022-07-22T06:48:34;18.90;99.90
4435;DHT22;46552;52.150;8.428;2022-07-22T06:51:02;19.00;99.90
4435;DHT22;46552;52.150;8.428;2022-07-22T06:53:32;19.00;99.90
4435;DHT22;46552;52.150;8.428;2022-07-22T06:56:00;19.00;99.90
4435;DHT22;46552;52.150;8.428;2022-07-22T06:58:28;19.00;99.90
4435;DHT22;46552;52.150;8.428;2022-07-22T07:00:56;19.10;99.90
4435;DHT22;46552;52.150;8.428;2022-07-22T07:03:23;19.10;99.90
4435;DHT22;46552;52.150;8.428;2022-07-22T07:05:53;19.10;99.90
4435;DHT22;46552;52.150;8.428;2022-07-22T07:08:21;19.10;99.90
4435;DHT22;46552;52.150;8.428;2022-07-22T07:10:49;19.10;99.90
4435;DHT22;46552;52.150;8.428;2022-07-22T07:13:16;19.20;99.90
4435;DHT22;46552;52.150;8.428;2022-07-22T07:15:43;19.20;99.90
4435;DHT22;46552;52.150;8.428;2022-07-22T07:18:11;19.30;99.90
4435;DHT22;46552;52.150;8.428;2022-07-22T07:20:38;19.30;99.90
4435;DHT22;46552;52.150;8.428;2022-07-22T07:23:07;19.30;99.90
4435;DHT22;46552;52.150;8.428;2022-07-22T07:25:35;19.30;99.90
4435;DHT22;46552;52.150;8.428;2022-07-22T07:28:03;19.30;99.90
4435;DHT22;46552;52.150;8.428;2022-07-22T07:30:32;19.30;99.90
4435;DHT22;46552;52.150;8.428;2022-07-22T07:32:59;19.30;99.90
4435;DHT22;46552;52.150;8.428;2022-07-22T07:35:28;19.40;99.90
4435;DHT22;46552;52.150;8.428;2022-07-22T07:37:55;19.40;99.90
4435;DHT22;46552;52.150;8.428;2022-07-22T07:40:25;19.50;99.90
4435;DHT22;46552;52.150;8.428;2022-07-22T07:42:53;19.60;99.90
4435;DHT22;46552;52.150;8.428;2022-07-22T07:45:22;19.70;99.90
4435;DHT22;46552;52.150;8.428;2022-07-22T07:47:50;19.80;99.90
4435;DHT22;46552;52.150;8.428;2022-07-22T07:50:17;19.90;99.90
4435;DHT22;46552;52.150;8.428;2022-07-22T07:52:46;20.00;99.90
4435;DHT22;46552;52.150;8.428;2022-07-22T07:55:14;20.10;99.90
4435;DHT22;46552;52.150;8.428;2022-07-22T07:57:44;20.10;99.90
4435;DHT22;46552;52.150;8.428;2022-07-22T08:00:15;20.10;99.90
4435;DHT22;46552;52.150;8.428;2022-07-22T08:02:43;20.00;99.90
4435;DHT22;46552;52.150;8.428;2022-07-22T08:05:10;20.10;99.90
4435;DHT22;46552;52.150;8.428;2022-07-22T08:07:38;20.00;99.90
4435;DHT22;46552;52.150;8.428;2022-07-22T08:10:06;20.10;99.90
4435;DHT22;46552;52.150;8.428;2022-07-22T08:12:34;20.10;99.90
4435;DHT22;46552;52.150;8.428;2022-07-22T08:15:03;20.20;99.90
4435;DHT22;46552;52.150;8.428;2022-07-22T08:17:31;20.10;99.90
4435;DHT22;46552;52.150;8.428;2022-07-22T08:19:59;20.10;99.90
4435;DHT22;46552;52.150;8.428;2022-07-22T08:22:26;20.10;99.90
4435;DHT22;46552;52.150;8.428;2022-07-22T08:24:53;20.10;99.90
4435;DHT22;46552;52.150;8.428;2022-07-22T08:27:21;20.30;99.90
4435;DHT22;46552;52.150;8.428;2022-07-22T08:29:48;20.20;99.90
4435;DHT22;46552;52.150;8.428;2022-07-22T08:32:18;20.20;99.90
4435;DHT22;46552;52.150;8.428;2022-07-22T08:34:45;20.20;99.90
4435;DHT22;46552;52.150;8.428;2022-07-22T08:37:13;20.20;99.90
4435;DHT22;46552;52.150;8.428;2022-07-22T08:39:40;20.20;99.90
4435;DHT22;46552;52.150;8.428;2022-07-22T08:42:07;20.10;99.90
4435;DHT22;46552;52.150;8.428;2022-07-22T08:44:34;20.20;99.90
4435;DHT22;46552;52.150;8.428;2022-07-22T08:47:02;20.20;99.90
4435;DHT22;46552;52.150;8.428;2022-07-22T08:49:31;20.20;99.90
4435;DHT22;46552;52.150;8.428;2022-07-22T08:51:58;20.20;99.90
4435;DHT22;46552;52.150;8.428;2022-07-22T08:54:27;20.30;99.90
4435;DHT22;46552;52.150;8.428;2022-07-22T08:56:54;20.40;99.90
4435;DHT22;46552;52.150;8.428;2022-07-22T08:59:21;20.50;99.90
4435;DHT22;46552;52.150;8.428;2022-07-22T09:02:04;20.50;99.90
4435;DHT22;46552;52.150;8.428;2022-07-22T09:04:50;20.40;99.90
4435;DHT22;46552;52.150;8.428;2022-07-22T09:07:24;20.40;99.90
4435;DHT22;46552;52.150;8.428;2022-07-22T09:09:51;20.40;99.90
4435;DHT22;46552;52.150;8.428;2022-07-22T09:12:19;20.50;99.90
4435;DHT22;46552;52.150;8.428;2022-07-22T09:14:48;20.40;99.90
4435;DHT22;46552;52.150;8.428;2022-07-22T09:17:23;20.40;99.90
4435;DHT22;46552;52.150;8.428;2022-07-22T09:19:53;20.40;99.90
4435;DHT22;46552;52.150;8.428;2022-07-22T09:22:35;20.30;99.90
4435;DHT22;46552;52.150;8.428;2022-07-22T09:25:21;20.30;99.90
4435;DHT22;46552;52.150;8.428;2022-07-22T09:27:50;20.30;99.90
4435;DHT22;46552;52.150;8.428;2022-07-22T09:30:19;20.40;99.90
4435;DHT22;46552;52.150;8.428;2022-07-22T09:32:47;20.40;99.90
4435;DHT22;46552;52.150;8.428;2022-07-22T09:35:16;20.40;99.90
4435;DHT22;46552;52.150;8.428;2022-07-22T09:37:50;20.40;99.90
4435;DHT22;46552;52.150;8.428;2022-07-22T09:40:19;20.30;99.90
4435;DHT22;46552;52.150;8.428;2022-07-22T09:42:49;20.40;99.90
4435;DHT22;46552;52.150;8.428;2022-07-22T09:45:19;20.40;99.90
4435;DHT22;46552;52.150;8.428;2022-07-22T09:47:47;20.40;99.90
4435;DHT22;46552;52.150;8.428;2022-07-22T09:50:19;20.40;99.90
4435;DHT22;46552;52.150;8.428;2022-07-22T09:52:48;20.50;99.90
4435;DHT22;46552;52.150;8.428;2022-07-22T09:55:17;20.50;99.90
4435;DHT22;46552;52.150;8.428;2022-07-22T09:57:44;20.60;99.90
4435;DHT22;46552;52.150;8.428;2022-07-22T10:00:13;20.70;99.90
4435;DHT22;46552;52.150;8.428;2022-07-22T10:02:44;20.70;99.90
4435;DHT22;46552;52.150;8.428;2022-07-22T10:05:13;20.70;99.90
4435;DHT22;46552;52.150;8.428;2022-07-22T10:07:43;20.70;99.90
4435;DHT22;46552;52.150;8.428;2022-07-22T10:10:13;20.80;99.90
4435;DHT22;46552;52.150;8.428;2022-07-22T10:12:42;20.80;99.90
4435;DHT22;46552;52.150;8.428;2022-07-22T10:15:10;20.90;99.90
4435;DHT22;46552;52.150;8.428;2022-07-22T10:17:40;20.90;99.90
4435;DHT22;46552;52.150;8.428;2022-07-22T10:20:10;20.80;99.90
4435;DHT22;46552;52.150;8.428;2022-07-22T10:22:55;20.80;99.90
4435;DHT22;46552;52.150;8.428;2022-07-22T10:25:24;20.80;99.90
4435;DHT22;46552;52.150;8.428;2022-07-22T10:27:54;20.80;99.90
4435;DHT22;46552;52.150;8.428;2022-07-22T10:30:24;20.80;99.90
4435;DHT22;46552;52.150;8.428;2022-07-22T10:33:06;20.70;99.90
4435;DHT22;46552;52.150;8.428;2022-07-22T10:35:36;20.60;99.90
4435;DHT22;46552;52.150;8.428;2022-07-22T10:38:08;20.60;99.90
4435;DHT22;46552;52.150;8.428;2022-07-22T10:40:53;20.50;99.90
4435;DHT22;46552;52.150;8.428;2022-07-22T10:43:23;20.60;99.90
4435;DHT22;46552;52.150;8.428;2022-07-22T10:45:54;20.60;99.90
4435;DHT22;46552;52.150;8.428;2022-07-22T10:48:25;20.60;99.90
4435;DHT22;46552;52.150;8.428;2022-07-22T10:51:12;20.60;99.90
4435;DHT22;46552;52.150;8.428;2022-07-22T10:53:46;20.60;99.90
4435;DHT22;46552;52.150;8.428;2022-07-22T10:56:24;20.60;99.90
4435;DHT22;46552;52.150;8.428;2022-07-22T10:59:08;20.60;99.90
4435;DHT22;46552;52.150;8.428;2022-07-22T11:01:38;20.60;99.90
4435;DHT22;46552;52.150;8.428;2022-07-22T11:04:11;20.60;99.90
4435;DHT22;46552;52.150;8.428;2022-07-22T11:06:38;20.70;99.90
4435;DHT22;46552;52.150;8.428;2022-07-22T11:09:09;20.70;99.90
4435;DHT22;46552;52.150;8.428;2022-07-22T11:11:39;20.60;99.90
4435;DHT22;46552;52.150;8.428;2022-07-22T11:14:19;20.60;99.90
4435;DHT22;46552;52.150;8.428;2022-07-22T11:16:48;20.50;99.90
4435;DHT22;46552;52.150;8.428;2022-07-22T11:19:20;20.50;99.90
4435;DHT22;46552;52.150;8.428;2022-07-22T11:21:53;20.50;99.90
4435;DHT22;46552;52.150;8.428;2022-07-22T11:24:23;20.50;99.90
4435;DHT22;46552;52.150;8.428;2022-07-22T11:26:52;20.50;99.90
4435;DHT22;46552;52.150;8.428;2022-07-22T11:29:25;20.40;99.90
4435;DHT22;46552;52.150;8.428;2022-07-22T11:31:53;20.40;99.90
4435;DHT22;46552;52.150;8.428;2022-07-22T11:34:20;20.40;99.90
4435;DHT22;46552;52.150;8.428;2022-07-22T11:36:48;20.40;99.90
4435;DHT22;46552;52.150;8.428;2022-07-22T11:39:19;20.40;99.90
4435;DHT22;46552;52.150;8.428;2022-07-22T11:41:48;20.40;99.90
4435;DHT22;46552;52.150;8.428;2022-07-22T11:44:18;20.40;99.90
4435;DHT22;46552;52.150;8.428;2022-07-22T11:46:46;20.50;99.90
4435;DHT22;46552;52.150;8.428;2022-07-22T11:49:16;20.60;99.90
4435;DHT22;46552;52.150;8.428;2022-07-22T11:51:44;20.70;99.90
4435;DHT22;46552;52.150;8.428;2022-07-22T11:54:11;20.70;99.90
4435;DHT22;46552;52.150;8.428;2022-07-22T11:56:39;20.70;99.90
4435;DHT22;46552;52.150;8.428;2022-07-22T11:59:12;20.70;99.90
4435;DHT22;46552;52.150;8.428;2022-07-22T12:01:40;20.80;99.90
4435;DHT22;46552;52.150;8.428;2022-07-22T12:04:09;20.90;99.90
4435;DHT22;46552;52.150;8.428;2022-07-22T12:06:38;20.80;99.90
4435;DHT22;46552;52.150;8.428;2022-07-22T12:09:08;20.70;99.90
4435;DHT22;46552;52.150;8.428;2022-07-22T12:11:37;20.70;99.90
4435;DHT22;46552;52.150;8.428;2022-07-22T12:14:06;20.70;99.90
4435;DHT22;46552;52.150;8.428;2022-07-22T12:16:36;20.60;99.90
4435;DHT22;46552;52.150;8.428;2022-07-22T12:19:07;20.70;99.90
4435;DHT22;46552;52.150;8.428;2022-07-22T12:21:36;20.70;99.90
4435;DHT22;46552;52.150;8.428;2022-07-22T12:24:05;20.80;99.90
4435;DHT22;46552;52.150;8.428;2022-07-22T12:26:40;20.80;99.90
4435;DHT22;46552;52.150;8.428;2022-07-22T12:29:16;20.80;99.90
4435;DHT22;46552;52.150;8.428;2022-07-22T12:31:46;20.90;99.90
4435;DHT22;46552;52.150;8.428;2022-07-22T12:34:14;20.90;99.90
4435;DHT22;46552;52.150;8.428;2022-07-22T12:36:45;21.00;99.90
4435;DHT22;46552;52.150;8.428;2022-07-22T12:39:18;21.10;99.90
4435;DHT22;46552;52.150;8.428;2022-07-22T12:41:50;21.20;99.90
4435;DHT22;46552;52.150;8.428;2022-07-22T12:44:19;21.20;99.90
4435;DHT22;46552;52.150;8.428;2022-07-22T12:46:50;21.20;99.90
4435;DHT22;46552;52.150;8.428;2022-07-22T12:49:22;21.10;99.90
4435;DHT22;46552;52.150;8.428;2022-07-22T12:52:09;21.00;99.90
4435;DHT22;46552;52.150;8.428;2022-07-22T12:54:40;20.90;99.90
4435;DHT22;46552;52.150;8.428;2022-07-22T12:57:08;20.90;99.90
4435;DHT22;46552;52.150;8.428;2022-07-22T12:59:36;20.90;99.90
4435;DHT22;46552;52.150;8.428;2022-07-22T13:02:05;20.90;99.90
4435;DHT22;46552;52.150;8.428;2022-07-22T13:04:33;21.00;99.90
4435;DHT22;46552;52.150;8.428;2022-07-22T13:09:27;21.00;99.90
4435;DHT22;46552;52.150;8.428;2022-07-22T13:11:55;21.10;99.90
4435;DHT22;46552;52.150;8.428;2022-07-22T13:14:22;21.10;99.90
4435;DHT22;46552;52.150;8.428;2022-07-22T13:16:50;21.10;99.90
4435;DHT22;46552;52.150;8.428;2022-07-22T13:19:18;21.10;99.90
4435;DHT22;46552;52.150;8.428;2022-07-22T13:21:45;21.20;99.90
4435;DHT22;46552;52.150;8.428;2022-07-22T13:24:12;21.20;99.90
4435;DHT22;46552;52.150;8.428;2022-07-22T13:26:40;21.30;99.90
4435;DHT22;46552;52.150;8.428;2022-07-22T13:29:07;21.30;99.90
4435;DHT22;46552;52.150;8.428;2022-07-22T13:31:35;21.20;99.90
4435;DHT22;46552;52.150;8.428;2022-07-22T13:34:02;21.20;99.90
4435;DHT22;46552;52.150;8.428;2022-07-22T13:36:30;21.30;99.90
4435;DHT22;46552;52.150;8.428;2022-07-22T13:38:59;21.30;99.90
4435;DHT22;46552;52.150;8.428;2022-07-22T13:41:28;21.30;99.90
4435;DHT22;46552;52.150;8.428;2022-07-22T13:43:56;21.20;99.90
4435;DHT22;46552;52.150;8.428;2022-07-22T13:46:23;21.20;99.90
4435;DHT22;46552;52.150;8.428;2022-07-22T13:48:52;21.20;99.90
4435;DHT22;46552;52.150;8.428;2022-07-22T13:51:20;21.10;99.90
4435;DHT22;46552;52.150;8.428;2022-07-22T13:53:49;21.10;99.90
4435;DHT22;46552;52.150;8.428;2022-07-22T13:56:17;21.10;99.90
4435;DHT22;46552;52.150;8.428;2022-07-22T13:58:46;21.20;99.90
4435;DHT22;46552;52.150;8.428;2022-07-22T14:01:13;21.20;99.90
4435;DHT22;46552;52.150;8.428;2022-07-22T14:03:40;21.30;99.90
4435;DHT22;46552;52.150;8.428;2022-07-22T14:06:08;21.30;99.90
4435;DHT22;46552;52.150;8.428;2022-07-22T14:08:36;21.30;99.90
4435;DHT22;46552;52.150;8.428;2022-07-22T14:11:04;21.30;99.90
4435;DHT22;46552;52.150;8.428;2022-07-22T14:13:32;21.20;99.90
4435;DHT22;46552;52.150;8.428;2022-07-22T14:15:59;21.20;99.90
4435;DHT22;46552;52.150;8.428;2022-07-22T14:18:47;21.10;99.90
4435;DHT22;46552;52.150;8.428;2022-07-22T14:21:14;21.10;99.90
4435;DHT22;46552;52.150;8.428;2022-07-22T14:23:42;21.10;99.90
4435;DHT22;46552;52.150;8.428;2022-07-22T14:26:11;21.10;99.90
4435;DHT22;46552;52.150;8.428;2022-07-22T14:28:39;21.10;99.90
4435;DHT22;46552;52.150;8.428;2022-07-22T14:31:05;21.10;99.90
4435;DHT22;46552;52.150;8.428;2022-07-22T14:33:33;21.10;99.90
4435;DHT22;46552;52.150;8.428;2022-07-22T14:36:00;21.20;99.90
4435;DHT22;46552;52.150;8.428;2022-07-22T14:38:27;21.20;99.90
4435;DHT22;46552;52.150;8.428;2022-07-22T14:40:55;21.20;99.90
4435;DHT22;46552;52.150;8.428;2022-07-22T14:43:23;21.20;99.90
4435;DHT22;46552;52.150;8.428;2022-07-22T14:45:52;21.20;99.90
4435;DHT22;46552;52.150;8.428;2022-07-22T14:48:19;21.20;99.90
4435;DHT22;46552;52.150;8.428;2022-07-22T14:50:46;21.20;99.90
4435;DHT22;46552;52.150;8.428;2022-07-22T14:53:13;21.30;99.90
4435;DHT22;46552;52.150;8.428;2022-07-22T14:55:42;21.30;99.90
4435;DHT22;46552;52.150;8.428;2022-07-22T14:58:09;21.30;99.90
4435;DHT22;46552;52.150;8.428;2022-07-22T15:00:38;21.30;99.90
4435;DHT22;46552;52.150;8.428;2022-07-22T15:03:05;21.20;99.90
4435;DHT22;46552;52.150;8.428;2022-07-22T15:05:32;21.20;99.90
4435;DHT22;46552;52.150;8.428;2022-07-22T15:07:59;21.20;99.90
4435;DHT22;46552;52.150;8.428;2022-07-22T15:10:27;21.20;99.90
4435;DHT22;46552;52.150;8.428;2022-07-22T15:12:54;21.10;99.90
4435;DHT22;46552;52.150;8.428;2022-07-22T15:15:21;21.20;99.90
4435;DHT22;46552;52.150;8.428;2022-07-22T15:17:50;21.20;99.90
4435;DHT22;46552;52.150;8.428;2022-07-22T15:20:17;21.10;99.90
4435;DHT22;46552;52.150;8.428;2022-07-22T15:22:45;21.10;99.90
4435;DHT22;46552;52.150;8.428;2022-07-22T15:25:11;21.10;99.90
4435;DHT22;46552;52.150;8.428;2022-07-22T15:27:39;21.10;99.90
4435;DHT22;46552;52.150;8.428;2022-07-22T15:30:09;21.10;99.90
4435;DHT22;46552;52.150;8.428;2022-07-22T15:32:37;21.10;99.90
4435;DHT22;46552;52.150;8.428;2022-07-22T15:35:07;21.10;99.90
4435;DHT22;46552;52.150;8.428;2022-07-22T15:37:35;21.10;99.90
4435;DHT22;46552;52.150;8.428;2022-07-22T15:40:05;21.10;99.90
4435;DHT22;46552;52.150;8.428;2022-07-22T15:42:32;21.10;99.90
4435;DHT22;46552;52.150;8.428;2022-07-22T15:44:59;21.10;99.90
4435;DHT22;46552;52.150;8.428;2022-07-22T15:47:27;21.10;99.90
4435;DHT22;46552;52.150;8.428;2022-07-22T15:49:54;21.10;99.90
4435;DHT22;46552;52.150;8.428;2022-07-22T15:52:22;21.10;99.90
4435;DHT22;46552;52.150;8.428;2022-07-22T15:54:50;21.10;99.90
4435;DHT22;46552;52.150;8.428;2022-07-22T15:57:18;21.20;99.90